Terminal Aerodrome Forecast
Issued by NWS Cleveland, OH

Home | Current Version | Previous Version | Text Only | Print | Product List | Glossary Off
Versions: 1 2 3 4 5 6 7 8 9 10 11 12 13 14 15 16 17 18 19 20 21 22 23 24

000
FTUS41 KCLE 211526 AAA
TAFMFD
TAF AMD
KMFD 211526Z 2115/2212 16010KT P6SM SCT040 BKN250
      TEMPO 2115/2118 BKN040
     FM211800 16010KT P6SM BKN040
     FM220000 16008KT P6SM OVC040
     FM220800 16004KT 4SM BR BKN035 OVC100=

USA.gov is the U.S. government's official web portal to all federal, state and local government web resources and services.